Terminal Aerodrome Forecast
Issued by NWS

Home | Current Version | Previous Version | Text Only | Print | Product List | Glossary On
Versions: 1 2 3 4 5 6 7 8 9 10 11 12 13 14 15 16 17 18 19 20 21 22
000
FTUS41 KCAR 222339
TAFFVE
TAF
KFVE 222339Z 2300/2324 29008KT P6SM FEW070
     FM231000 VRB03KT P6SM SCT080 BKN250
     FM231300 16006KT P6SM OVC080
     FM231600 16008KT 3SM -RA BR OVC020
     FM231800 16008KT 1 1/2SM -RA BR OVC008=

USA.gov is the U.S. government's official web portal to all federal, state and local government web resources and services.